Time;durP1;ratioP1;P1;durP2;ratioP2;P2;SDS_P1;SDS_P2;PMS_P1;PMS_P2;Temp;Humidity;BMP_temperature;BMP_pressure;BME280_temperature;BME280_humidity;BME280_pressure;Samples;Min_cycle;Max_cycle;Signal;HPM_P1;HPM_P2
2022/07/07 00:01:51;;;;;;;1.57;1.57;;;13.80;99.90;;;;;;495019;240;28708;-69
2022/07/07 00:03:52;;;;;;;1.70;1.70;;;13.80;99.90;;;;;;494983;240;28684;-69
2022/07/07 00:05:53;;;;;;;1.70;1.70;;;13.90;99.90;;;;;;494998;240;28704;-68
2022/07/07 00:07:55;;;;;;;1.90;1.80;;;13.90;99.90;;;;;;495022;240;28668;-68
2022/07/07 00:09:56;;;;;;;2.30;2.10;;;13.90;99.90;;;;;;494984;240;28286;-69
2022/07/07 00:11:58;;;;;;;1.90;1.80;;;13.90;99.90;;;;;;495005;240;28433;-68
2022/07/07 00:13:58;;;;;;;2.07;1.97;;;13.90;99.90;;;;;;494886;240;28367;-69
2022/07/07 00:16:00;;;;;;;2.10;2.00;;;13.90;99.90;;;;;;494941;240;28747;-71
2022/07/07 00:18:01;;;;;;;2.23;2.13;;;13.90;99.90;;;;;;495034;240;28660;-69
2022/07/07 00:20:02;;;;;;;2.03;1.93;;;13.80;99.90;;;;;;494803;240;28075;-70
2022/07/07 00:22:03;;;;;;;1.97;1.87;;;13.80;99.90;;;;;;495000;240;28420;-68
2022/07/07 00:24:05;;;;;;;2.00;1.93;;;13.80;99.90;;;;;;494980;240;28394;-71
2022/07/07 00:26:06;;;;;;;2.00;1.90;;;13.80;99.90;;;;;;495000;240;28517;-72
2022/07/07 00:28:07;;;;;;;2.00;1.90;;;13.90;99.90;;;;;;495005;240;28819;-68
2022/07/07 00:30:08;;;;;;;2.10;1.80;;;13.90;99.90;;;;;;494999;240;29176;-70
2022/07/07 00:32:10;;;;;;;1.90;1.80;;;13.80;99.90;;;;;;495002;240;29535;-69
2022/07/07 00:34:11;;;;;;;1.90;1.80;;;13.80;99.90;;;;;;494975;240;29143;-68
2022/07/07 00:36:12;;;;;;;2.00;1.90;;;13.90;99.90;;;;;;494980;240;28270;-71
2022/07/07 00:38:13;;;;;;;1.90;1.90;;;13.90;99.90;;;;;;495005;240;28644;-69
2022/07/07 00:40:15;;;;;;;1.87;1.80;;;13.90;99.90;;;;;;494959;240;28318;-69
2022/07/07 00:42:16;;;;;;;2.30;2.20;;;13.90;99.90;;;;;;494963;240;28258;-69
2022/07/07 00:44:17;;;;;;;2.00;1.90;;;13.90;99.90;;;;;;494973;240;28404;-69
2022/07/07 00:46:18;;;;;;;2.20;2.10;;;13.90;99.90;;;;;;494972;240;29047;-72
2022/07/07 00:48:20;;;;;;;2.17;2.07;;;13.90;99.90;;;;;;495013;240;28412;-68
2022/07/07 00:50:21;;;;;;;2.30;2.10;;;13.90;99.90;;;;;;494964;240;28806;-69
2022/07/07 00:52:22;;;;;;;2.27;2.07;;;13.80;99.90;;;;;;494986;240;28420;-69
2022/07/07 00:54:23;;;;;;;2.00;1.90;;;13.80;99.90;;;;;;494993;240;29160;-69
2022/07/07 00:56:25;;;;;;;2.40;2.00;;;13.80;99.90;;;;;;494976;240;29155;-71
2022/07/07 00:58:26;;;;;;;2.10;2.00;;;13.80;99.90;;;;;;494995;240;29222;-68
2022/07/07 01:00:27;;;;;;;2.07;1.97;;;13.70;99.90;;;;;;494977;240;28683;-70
2022/07/07 01:02:29;;;;;;;2.33;2.23;;;13.70;99.90;;;;;;495000;240;28641;-69
2022/07/07 01:04:30;;;;;;;1.90;1.80;;;13.70;99.90;;;;;;494879;240;28370;-68
2022/07/07 01:06:31;;;;;;;2.30;2.20;;;13.70;99.90;;;;;;494967;240;28691;-68
2022/07/07 01:08:32;;;;;;;2.20;2.10;;;13.70;99.90;;;;;;494857;240;28369;-68
2022/07/07 01:10:33;;;;;;;2.10;2.00;;;13.70;99.90;;;;;;494917;240;28197;-69
2022/07/07 01:12:35;;;;;;;2.20;2.10;;;13.60;99.90;;;;;;494974;240;28264;-68
2022/07/07 01:14:36;;;;;;;2.10;2.00;;;13.50;99.90;;;;;;494999;240;28298;-68
2022/07/07 01:16:37;;;;;;;2.70;2.30;;;13.50;99.90;;;;;;494953;240;28383;-71
2022/07/07 01:18:38;;;;;;;1.80;1.80;;;13.50;99.90;;;;;;494985;240;29110;-68
2022/07/07 01:20:40;;;;;;;1.93;1.83;;;13.50;99.90;;;;;;495001;240;28986;-71
2022/07/07 01:22:41;;;;;;;2.00;1.90;;;13.40;99.90;;;;;;494982;240;29192;-68
2022/07/07 01:24:42;;;;;;;2.20;2.10;;;13.40;99.90;;;;;;494977;240;28151;-68
2022/07/07 01:26:43;;;;;;;2.03;1.93;;;13.30;99.90;;;;;;494956;240;28368;-68
2022/07/07 01:28:45;;;;;;;2.10;2.00;;;13.30;99.90;;;;;;495008;240;28343;-67
2022/07/07 01:30:46;;;;;;;2.43;2.30;;;13.30;99.90;;;;;;495017;240;28167;-70
2022/07/07 01:32:47;;;;;;;2.00;1.90;;;13.30;99.90;;;;;;495003;240;28456;-68
2022/07/07 01:34:48;;;;;;;1.80;1.70;;;13.20;99.90;;;;;;495016;240;28365;-69
2022/07/07 01:36:50;;;;;;;2.00;1.90;;;13.20;99.90;;;;;;495036;240;28374;-69
2022/07/07 01:38:51;;;;;;;2.13;2.03;;;13.20;99.90;;;;;;495025;240;28280;-68
2022/07/07 01:40:52;;;;;;;1.87;1.80;;;13.30;99.90;;;;;;495020;240;28168;-71
2022/07/07 01:42:53;;;;;;;2.20;2.10;;;13.20;99.90;;;;;;494982;240;28587;-68
2022/07/07 01:44:55;;;;;;;2.07;2.00;;;13.10;99.90;;;;;;495007;240;28757;-68
2022/07/07 01:46:56;;;;;;;1.97;1.87;;;13.10;99.90;;;;;;494980;240;29350;-68
2022/07/07 01:48:57;;;;;;;3.30;1.90;;;13.10;99.90;;;;;;494969;240;28593;-68
2022/07/07 01:50:58;;;;;;;2.00;1.90;;;13.10;99.90;;;;;;495003;240;28173;-70
2022/07/07 01:53:00;;;;;;;1.90;1.80;;;13.10;99.90;;;;;;494972;240;28258;-68
2022/07/07 01:55:01;;;;;;;1.83;1.73;;;13.00;99.90;;;;;;494956;240;28412;-69
2022/07/07 01:57:02;;;;;;;1.63;1.60;;;13.10;99.90;;;;;;494888;240;28196;-68
2022/07/07 01:59:03;;;;;;;1.97;1.90;;;13.10;99.90;;;;;;494797;240;28127;-68
2022/07/07 02:01:05;;;;;;;1.80;1.70;;;13.10;99.90;;;;;;494924;240;28436;-69
2022/07/07 02:03:06;;;;;;;1.97;1.87;;;13.10;99.90;;;;;;494918;240;28241;-68
2022/07/07 02:05:07;;;;;;;2.73;2.20;;;13.00;99.90;;;;;;494933;240;28160;-68
2022/07/07 02:07:08;;;;;;;1.90;1.80;;;13.10;99.90;;;;;;494939;240;28167;-68
2022/07/07 02:09:10;;;;;;;2.03;1.93;;;13.20;99.90;;;;;;494948;240;28765;-68
2022/07/07 02:11:14;;;;;;;2.03;1.93;;;13.20;99.90;;;;;;494977;240;28815;-69
2022/07/07 02:13:15;;;;;;;2.57;2.37;;;13.30;99.90;;;;;;494995;240;28071;-69
2022/07/07 02:15:17;;;;;;;1.97;1.87;;;13.40;99.90;;;;;;494980;240;28340;-68
2022/07/07 02:17:18;;;;;;;2.90;1.80;;;13.40;99.90;;;;;;494990;240;28045;-68
2022/07/07 02:19:19;;;;;;;1.70;1.70;;;13.50;99.90;;;;;;494981;240;28090;-70
2022/07/07 02:21:20;;;;;;;1.90;1.80;;;13.50;99.90;;;;;;494985;240;28086;-68
2022/07/07 02:23:22;;;;;;;1.90;1.80;;;13.50;99.90;;;;;;494989;240;28958;-68
2022/07/07 02:25:23;;;;;;;1.90;1.80;;;13.50;99.90;;;;;;494964;240;28584;-68
2022/07/07 02:27:24;;;;;;;2.07;1.90;;;13.50;99.90;;;;;;494974;240;28924;-68
2022/07/07 02:29:25;;;;;;;2.07;1.97;;;13.50;99.90;;;;;;494975;240;28148;-70
2022/07/07 02:31:27;;;;;;;1.93;1.83;;;13.40;99.90;;;;;;495004;240;28188;-70
2022/07/07 02:33:28;;;;;;;2.40;2.30;;;13.40;99.90;;;;;;494977;240;28389;-70
2022/07/07 02:35:29;;;;;;;2.20;2.10;;;13.50;99.90;;;;;;494951;240;28356;-68
2022/07/07 02:37:30;;;;;;;2.10;2.00;;;13.50;99.90;;;;;;494971;240;28381;-69
2022/07/07 02:39:32;;;;;;;2.40;2.30;;;13.50;99.90;;;;;;494974;240;28072;-72
2022/07/07 02:41:33;;;;;;;2.53;2.33;;;13.40;99.90;;;;;;494998;240;28316;-69
2022/07/07 02:43:34;;;;;;;2.10;2.00;;;13.40;99.90;;;;;;494809;240;28161;-70
2022/07/07 02:45:35;;;;;;;2.60;2.10;;;13.40;99.90;;;;;;494952;240;28158;-69
2022/07/07 02:47:37;;;;;;;2.23;2.13;;;13.40;99.90;;;;;;494911;240;28812;-69
2022/07/07 02:49:38;;;;;;;2.00;1.90;;;13.40;99.90;;;;;;494976;240;28675;-71
2022/07/07 02:51:39;;;;;;;2.20;2.10;;;13.40;99.90;;;;;;495001;240;28261;-68
2022/07/07 02:53:40;;;;;;;2.10;2.00;;;13.40;99.90;;;;;;495002;240;28177;-70
2022/07/07 02:55:42;;;;;;;2.30;2.10;;;13.30;99.90;;;;;;494979;240;28362;-68
2022/07/07 02:57:43;;;;;;;2.10;2.00;;;13.30;99.90;;;;;;495016;240;28392;-68
2022/07/07 02:59:46;;;;;;;2.13;2.03;;;;;;;;;;495007;240;28154;-68
2022/07/07 03:01:47;;;;;;;2.07;1.97;;;13.30;99.90;;;;;;494889;240;26549;-70
2022/07/07 03:03:48;;;;;;;2.10;2.00;;;13.30;99.90;;;;;;494994;240;28166;-69
2022/07/07 03:05:49;;;;;;;1.90;1.80;;;13.20;99.90;;;;;;494954;240;28129;-69
2022/07/07 03:07:50;;;;;;;2.00;1.90;;;13.20;99.90;;;;;;494974;240;28090;-72
2022/07/07 03:09:52;;;;;;;2.17;2.07;;;13.10;99.90;;;;;;494985;240;28156;-69
2022/07/07 03:11:53;;;;;;;2.27;2.10;;;13.00;99.90;;;;;;494947;240;28377;-69
2022/07/07 03:13:54;;;;;;;2.00;1.90;;;13.00;99.90;;;;;;494992;240;28064;-67
2022/07/07 03:15:55;;;;;;;2.10;2.00;;;13.10;99.90;;;;;;494948;240;28125;-69
2022/07/07 03:17:57;;;;;;;1.80;1.80;;;13.10;99.90;;;;;;494994;240;28183;-70
2022/07/07 03:19:58;;;;;;;1.90;1.80;;;13.10;99.90;;;;;;494965;240;28554;-69
2022/07/07 03:21:59;;;;;;;2.13;1.90;;;13.10;99.90;;;;;;494918;240;28771;-69
2022/07/07 03:24:00;;;;;;;2.37;2.27;;;13.10;99.90;;;;;;494835;240;28910;-70
2022/07/07 03:26:02;;;;;;;2.20;2.10;;;13.00;99.90;;;;;;494883;240;28599;-69
2022/07/07 03:28:03;;;;;;;2.20;2.10;;;13.00;99.90;;;;;;494960;240;28236;-71
2022/07/07 03:30:04;;;;;;;2.20;2.10;;;13.00;99.90;;;;;;494953;240;28110;-69
2022/07/07 03:32:05;;;;;;;2.10;2.00;;;13.00;99.90;;;;;;494945;240;28088;-70
2022/07/07 03:34:08;;;;;;;2.20;2.10;;;;;;;;;;494984;240;28164;-69
2022/07/07 03:36:09;;;;;;;2.30;2.20;;;13.00;99.90;;;;;;494994;240;26890;-71
2022/07/07 03:38:10;;;;;;;2.40;2.30;;;13.00;99.90;;;;;;494949;240;28691;-69
2022/07/07 03:40:12;;;;;;;2.67;2.47;;;13.00;99.90;;;;;;494978;240;28550;-69
2022/07/07 03:42:13;;;;;;;2.30;2.20;;;12.90;99.90;;;;;;494964;240;28298;-69
2022/07/07 03:44:14;;;;;;;2.27;2.17;;;12.90;99.90;;;;;;494995;240;28130;-69
2022/07/07 03:46:15;;;;;;;2.23;2.13;;;12.90;99.90;;;;;;494960;240;28368;-71
2022/07/07 03:48:17;;;;;;;2.10;2.00;;;12.90;99.90;;;;;;494944;240;28034;-69
2022/07/07 03:50:18;;;;;;;2.30;2.20;;;12.90;99.90;;;;;;494989;240;28099;-69
2022/07/07 03:52:19;;;;;;;2.30;2.20;;;12.80;99.90;;;;;;494950;240;28171;-70
2022/07/07 03:54:20;;;;;;;2.00;1.90;;;12.90;99.90;;;;;;494979;240;28201;-69
2022/07/07 03:56:22;;;;;;;2.27;2.07;;;12.90;99.90;;;;;;494990;240;28188;-71
2022/07/07 03:58:23;;;;;;;2.53;2.03;;;12.90;99.90;;;;;;494983;240;28238;-69
2022/07/07 04:00:24;;;;;;;1.90;1.80;;;13.00;99.90;;;;;;494993;240;28649;-69
2022/07/07 04:02:25;;;;;;;2.13;1.87;;;13.00;99.90;;;;;;495022;240;28887;-72
2022/07/07 04:04:27;;;;;;;2.07;1.97;;;13.00;99.90;;;;;;494982;240;28570;-69
2022/07/07 04:06:31;;;;;;;1.90;1.80;;;13.00;99.90;;;;;;495008;240;28071;-70
2022/07/07 04:08:29;;;;;;;2.30;2.10;;;13.00;99.90;;;;;;494796;240;28238;-69
2022/07/07 04:10:30;;;;;;;1.80;1.70;;;13.00;99.90;;;;;;495000;240;28096;-69
2022/07/07 04:12:32;;;;;;;2.10;2.00;;;12.90;99.90;;;;;;495005;240;28261;-72
2022/07/07 04:14:33;;;;;;;2.27;2.07;;;13.00;99.90;;;;;;494972;240;28266;-70
2022/07/07 04:16:34;;;;;;;1.97;1.87;;;13.00;99.90;;;;;;494998;240;28070;-70
2022/07/07 04:18:35;;;;;;;1.90;1.80;;;13.00;99.90;;;;;;494993;240;28645;-69
2022/07/07 04:20:37;;;;;;;1.90;1.80;;;13.10;99.90;;;;;;495000;240;28622;-69
2022/07/07 04:22:38;;;;;;;2.10;2.00;;;13.10;99.90;;;;;;495017;240;28566;-72
2022/07/07 04:24:39;;;;;;;1.90;1.80;;;13.20;99.90;;;;;;494981;240;28703;-69
2022/07/07 04:26:40;;;;;;;2.43;2.23;;;13.30;99.90;;;;;;494998;240;28166;-70
2022/07/07 04:28:42;;;;;;;2.03;1.90;;;13.40;99.90;;;;;;494928;240;28098;-71
2022/07/07 04:30:43;;;;;;;12.77;2.10;;;13.40;99.90;;;;;;494994;240;28287;-69
2022/07/07 04:32:44;;;;;;;1.97;1.87;;;13.50;99.90;;;;;;494992;240;28384;-70
2022/07/07 04:34:46;;;;;;;2.50;2.40;;;13.60;99.90;;;;;;494980;240;28220;-67
2022/07/07 04:36:47;;;;;;;2.17;2.03;;;13.70;99.90;;;;;;495020;240;28396;-70
2022/07/07 04:38:48;;;;;;;3.17;2.40;;;13.70;99.90;;;;;;495031;240;28232;-69
2022/07/07 04:40:49;;;;;;;2.80;2.70;;;13.80;99.90;;;;;;494989;240;28789;-70
2022/07/07 04:42:51;;;;;;;2.67;2.47;;;13.80;99.90;;;;;;495040;240;28516;-73
2022/07/07 04:44:52;;;;;;;3.27;2.83;;;13.90;99.90;;;;;;494779;240;28839;-70
2022/07/07 04:46:53;;;;;;;2.80;2.60;;;14.00;99.90;;;;;;495100;240;28907;-71
2022/07/07 04:48:54;;;;;;;2.90;2.70;;;14.10;99.90;;;;;;495082;240;28737;-69
2022/07/07 04:50:56;;;;;;;2.90;2.80;;;14.20;99.90;;;;;;494983;240;29247;-70
2022/07/07 04:52:57;;;;;;;3.40;3.20;;;14.30;99.90;;;;;;495074;240;29303;-73
2022/07/07 04:54:58;;;;;;;3.20;3.00;;;14.30;99.90;;;;;;495060;240;29378;-69
2022/07/07 04:56:59;;;;;;;3.00;2.80;;;14.40;99.90;;;;;;494986;240;28927;-70
2022/07/07 04:59:01;;;;;;;3.00;2.80;;;14.50;99.90;;;;;;495042;240;28848;-69
2022/07/07 05:01:02;;;;;;;3.10;2.90;;;14.50;99.90;;;;;;495018;240;28835;-69
2022/07/07 05:03:03;;;;;;;3.23;2.97;;;14.50;99.90;;;;;;495064;240;28846;-73
2022/07/07 05:05:06;;;;;;;3.60;3.30;;;14.60;99.90;;;;;;495084;240;28803;-69
2022/07/07 05:07:06;;;;;;;3.23;3.00;;;14.60;99.90;;;;;;494907;240;28939;-70
2022/07/07 05:09:07;;;;;;;2.87;2.70;;;14.60;99.90;;;;;;495068;240;28888;-69
2022/07/07 05:11:08;;;;;;;3.27;3.07;;;14.60;99.90;;;;;;495048;240;29306;-70
2022/07/07 05:13:09;;;;;;;3.50;3.20;;;14.60;99.90;;;;;;495048;240;30141;-73
2022/07/07 05:15:11;;;;;;;2.90;2.70;;;14.60;99.90;;;;;;495064;240;29336;-70
2022/07/07 05:17:12;;;;;;;2.90;2.70;;;14.60;99.90;;;;;;495058;240;28832;-70
2022/07/07 05:19:13;;;;;;;3.50;3.20;;;14.60;99.90;;;;;;494990;240;28788;-69
2022/07/07 05:21:14;;;;;;;2.47;2.33;;;14.70;99.90;;;;;;495048;240;28836;-70
2022/07/07 05:23:16;;;;;;;2.80;2.57;;;14.60;99.90;;;;;;495051;240;28831;-72
2022/07/07 05:25:17;;;;;;;3.37;3.17;;;14.70;99.90;;;;;;495061;240;29254;-69
2022/07/07 05:27:18;;;;;;;3.33;3.03;;;14.70;99.90;;;;;;495062;240;29316;-70
2022/07/07 05:29:19;;;;;;;2.80;2.60;;;14.70;99.90;;;;;;495021;240;29292;-69
2022/07/07 05:31:21;;;;;;;3.30;3.10;;;14.70;99.90;;;;;;495060;240;28941;-70
2022/07/07 05:33:22;;;;;;;3.37;3.10;;;14.80;99.90;;;;;;495086;240;28848;-73
2022/07/07 05:35:23;;;;;;;3.37;3.10;;;14.90;99.90;;;;;;495021;240;28898;-69
2022/07/07 05:37:24;;;;;;;2.87;2.67;;;15.00;99.90;;;;;;495028;240;28924;-70
2022/07/07 05:39:28;;;;;;;2.63;2.43;;;15.10;99.90;;;;;;495070;240;28886;-69
2022/07/07 05:41:27;;;;;;;3.00;2.80;;;15.20;99.90;;;;;;494828;240;28801;-69
2022/07/07 05:43:28;;;;;;;3.27;3.07;;;15.30;99.90;;;;;;495062;240;28941;-71
2022/07/07 05:45:29;;;;;;;3.00;2.80;;;15.30;99.90;;;;;;495023;240;28887;-71
2022/07/07 05:47:31;;;;;;;2.67;2.47;;;15.40;99.90;;;;;;495042;240;28943;-70
2022/07/07 05:49:32;;;;;;;3.00;2.80;;;15.50;99.90;;;;;;495062;240;30151;-69
2022/07/07 05:51:33;;;;;;;3.27;3.07;;;15.50;99.90;;;;;;495020;240;29311;-70
2022/07/07 05:53:34;;;;;;;2.90;2.77;;;15.50;99.90;;;;;;495020;240;30254;-72
2022/07/07 05:55:36;;;;;;;2.83;2.63;;;15.60;99.90;;;;;;494785;240;28851;-70
2022/07/07 05:57:37;;;;;;;3.20;2.90;;;15.50;99.90;;;;;;495027;240;28835;-69
2022/07/07 05:59:38;;;;;;;2.70;2.50;;;15.60;99.90;;;;;;495099;240;28827;-70
2022/07/07 06:01:39;;;;;;;3.03;2.83;;;15.50;99.90;;;;;;494429;240;28804;-70
2022/07/07 06:03:41;;;;;;;3.23;2.53;;;15.50;99.90;;;;;;489144;243;28888;-71
2022/07/07 06:05:43;;;;;;;4.17;2.60;;;15.50;99.90;;;;;;498694;238;29128;-69
2022/07/07 06:07:43;;;;;;;4.10;3.50;;;15.50;99.90;;;;;;498646;238;29270;-70
2022/07/07 06:09:44;;;;;;;2.80;2.60;;;15.70;99.90;;;;;;498681;238;29112;-69
2022/07/07 06:11:46;;;;;;;3.03;2.80;;;15.80;99.90;;;;;;498659;238;28835;-70
2022/07/07 06:13:47;;;;;;;2.90;2.60;;;15.80;99.90;;;;;;498695;238;28803;-71
2022/07/07 06:15:48;;;;;;;3.00;2.67;;;15.60;99.90;;;;;;498692;238;28753;-69
2022/07/07 06:17:50;;;;;;;3.00;2.40;;;15.60;99.90;;;;;;498645;238;28729;-69
2022/07/07 06:19:51;;;;;;;2.43;2.33;;;15.40;99.90;;;;;;498674;238;28808;-70
2022/07/07 06:21:52;;;;;;;2.97;2.77;;;15.40;99.90;;;;;;489514;243;28694;-70
2022/07/07 06:23:53;;;;;;;2.57;2.40;;;15.40;99.90;;;;;;489458;243;28852;-71
2022/07/07 06:25:55;;;;;;;2.93;2.47;;;15.40;99.90;;;;;;489491;243;28705;-68
2022/07/07 06:27:56;;;;;;;3.60;3.30;;;15.40;99.90;;;;;;489448;243;28828;-70
2022/07/07 06:29:57;;;;;;;3.53;2.80;;;15.40;99.90;;;;;;489486;243;29361;-70
2022/07/07 06:31:58;;;;;;;3.30;2.87;;;15.40;99.90;;;;;;489511;243;29162;-70
2022/07/07 06:34:00;;;;;;;3.07;2.87;;;15.50;99.90;;;;;;489476;243;29227;-72
2022/07/07 06:36:01;;;;;;;3.33;3.03;;;15.40;99.90;;;;;;489480;243;28737;-70
2022/07/07 06:38:03;;;;;;;3.67;3.47;;;15.50;99.90;;;;;;489449;243;28761;-70
2022/07/07 06:40:03;;;;;;;3.60;3.30;;;15.50;99.90;;;;;;489468;243;28810;-69
2022/07/07 06:42:05;;;;;;;3.60;3.27;;;15.50;99.90;;;;;;489445;243;28711;-69
2022/07/07 06:44:06;;;;;;;3.37;3.07;;;15.30;99.90;;;;;;489461;243;28747;-71
2022/07/07 06:46:07;;;;;;;3.13;2.93;;;15.20;99.90;;;;;;489484;243;28710;-76
2022/07/07 06:48:08;;;;;;;3.20;3.00;;;15.20;99.90;;;;;;489487;243;28821;-71
2022/07/07 06:50:10;;;;;;;6.83;3.43;;;15.20;99.90;;;;;;489463;243;28792;-70
2022/07/07 06:52:12;;;;;;;3.63;3.33;;;15.10;99.90;;;;;;489488;243;28833;-70
2022/07/07 06:54:12;;;;;;;3.30;3.00;;;15.20;99.90;;;;;;489430;243;29242;-71
2022/07/07 06:56:13;;;;;;;2.87;2.67;;;15.30;99.90;;;;;;486735;241;29240;-75
2022/07/07 06:58:15;;;;;;;3.20;3.00;;;15.40;99.90;;;;;;478120;249;29339;-71
2022/07/07 07:00:16;;;;;;;3.00;2.80;;;15.40;99.90;;;;;;477732;249;28845;-72
2022/07/07 07:02:17;;;;;;;3.23;2.90;;;15.40;99.90;;;;;;477754;249;28775;-70
2022/07/07 07:04:18;;;;;;;2.63;2.43;;;15.40;99.90;;;;;;477698;249;28794;-71
2022/07/07 07:06:20;;;;;;;2.80;2.60;;;15.40;99.90;;;;;;477697;249;28861;-69
2022/07/07 07:08:21;;;;;;;2.90;2.70;;;15.50;99.90;;;;;;477727;249;28819;-71
2022/07/07 07:10:22;;;;;;;2.70;2.50;;;15.40;99.90;;;;;;477498;249;29181;-72
2022/07/07 07:12:24;;;;;;;2.70;2.47;;;15.40;99.90;;;;;;477723;249;28779;-72
2022/07/07 07:14:25;;;;;;;2.87;2.70;;;15.40;99.90;;;;;;477715;249;28822;-71
2022/07/07 07:16:26;;;;;;;2.87;2.67;;;15.40;99.90;;;;;;477657;249;29234;-70
2022/07/07 07:18:27;;;;;;;2.87;2.50;;;15.40;99.90;;;;;;477728;249;29282;-70
2022/07/07 07:20:29;;;;;;;12.23;2.80;;;15.40;99.90;;;;;;477748;249;29284;-72
2022/07/07 07:22:30;;;;;;;4.90;2.53;;;15.40;99.90;;;;;;477709;249;28876;-69
2022/07/07 07:24:31;;;;;;;2.63;2.43;;;15.50;99.90;;;;;;477759;249;28855;-71
2022/07/07 07:26:32;;;;;;;2.70;2.50;;;15.60;99.90;;;;;;477752;249;28771;-70
2022/07/07 07:28:34;;;;;;;2.60;2.40;;;15.70;99.90;;;;;;477721;249;28901;-69
2022/07/07 07:30:35;;;;;;;3.90;2.77;;;15.70;99.90;;;;;;477786;249;28901;-73
2022/07/07 07:32:36;;;;;;;5.03;3.03;;;15.80;99.90;;;;;;477746;249;30290;-70
2022/07/07 07:34:37;;;;;;;2.80;2.60;;;15.90;99.90;;;;;;477774;249;29503;-70
2022/07/07 07:36:39;;;;;;;3.60;2.57;;;15.90;99.90;;;;;;477814;249;28874;-70
2022/07/07 07:38:40;;;;;;;3.00;2.70;;;16.00;99.90;;;;;;477677;249;29305;-70
2022/07/07 07:40:41;;;;;;;4.00;2.67;;;16.00;99.90;;;;;;477777;249;29284;-71
2022/07/07 07:42:42;;;;;;;2.73;2.53;;;16.00;99.90;;;;;;477819;249;29330;-70
2022/07/07 07:47:03;;;;;;;3.20;3.00;;;16.00;99.90;;;;;;477801;249;29286;-73
2022/07/07 07:49:06;;;;;;;2.87;2.57;;;16.10;99.90;;;;;;477729;249;29296;-70
2022/07/07 07:51:06;;;;;;;3.30;2.23;;;16.20;99.90;;;;;;477685;249;29305;-69
2022/07/07 07:53:08;;;;;;;3.67;2.60;;;16.20;99.90;;;;;;477802;249;28867;-70
2022/07/07 07:55:08;;;;;;;2.57;2.40;;;16.30;99.90;;;;;;477705;249;28940;-70
2022/07/07 07:57:11;;;;;;;5.97;2.47;;;16.40;99.90;;;;;;477782;249;28815;-74
2022/07/07 07:59:11;;;;;;;2.63;2.50;;;16.40;99.90;;;;;;477717;249;28841;-69
2022/07/07 08:01:12;;;;;;;2.73;2.53;;;16.40;99.90;;;;;;477723;249;28914;-71
2022/07/07 08:03:13;;;;;;;4.20;2.50;;;16.40;99.90;;;;;;477801;249;28778;-70
2022/07/07 08:05:15;;;;;;;2.40;2.20;;;16.50;99.90;;;;;;477786;249;28803;-70
2022/07/07 08:07:17;;;;;;;2.83;2.50;;;16.50;99.90;;;;;;477723;249;28828;-72
2022/07/07 08:09:17;;;;;;;2.87;2.67;;;16.60;99.90;;;;;;477741;249;29226;-70
2022/07/07 08:11:18;;;;;;;2.87;2.67;;;16.70;99.90;;;;;;477729;249;29574;-71
2022/07/07 08:13:20;;;;;;;2.93;2.73;;;16.70;99.90;;;;;;477757;249;29228;-70
2022/07/07 08:15:21;;;;;;;5.53;3.33;;;16.60;99.90;;;;;;477789;249;29248;-70
2022/07/07 08:17:22;;;;;;;4.80;3.47;;;16.60;99.90;;;;;;477730;249;28924;-73
2022/07/07 08:19:23;;;;;;;3.03;2.83;;;16.60;99.90;;;;;;477778;249;28882;-70
2022/07/07 08:21:25;;;;;;;2.97;2.70;;;16.40;99.90;;;;;;477781;249;28815;-70
2022/07/07 08:23:26;;;;;;;3.97;2.90;;;16.50;99.90;;;;;;477731;249;28787;-69
2022/07/07 08:25:27;;;;;;;2.77;2.57;;;16.60;99.90;;;;;;477734;249;28878;-70
2022/07/07 08:27:28;;;;;;;2.90;2.70;;;16.60;99.90;;;;;;477788;249;28890;-72
2022/07/07 08:29:30;;;;;;;2.63;2.43;;;16.50;99.90;;;;;;477734;249;28920;-72
2022/07/07 08:31:31;;;;;;;4.30;2.70;;;16.60;99.90;;;;;;486318;241;28869;-71
2022/07/07 08:33:32;;;;;;;2.70;2.50;;;16.60;99.90;;;;;;501630;236;29148;-70
2022/07/07 08:35:34;;;;;;;2.37;2.27;;;16.70;99.90;;;;;;501686;237;29210;-71
2022/07/07 08:37:35;;;;;;;3.00;2.70;;;16.70;99.90;;;;;;501699;237;29178;-71
2022/07/07 08:39:36;;;;;;;3.17;2.87;;;16.70;99.90;;;;;;501637;237;28759;-70
2022/07/07 08:41:37;;;;;;;8.00;3.23;;;16.70;99.90;;;;;;501696;237;28707;-69
2022/07/07 08:43:39;;;;;;;4.17;3.20;;;16.70;99.90;;;;;;501704;237;29164;-73
2022/07/07 08:45:40;;;;;;;4.50;2.90;;;16.80;99.90;;;;;;501654;237;29124;-71
2022/07/07 08:47:41;;;;;;;7.43;2.90;;;16.90;99.90;;;;;;501636;237;29163;-70
2022/07/07 08:49:42;;;;;;;2.77;2.57;;;16.90;99.90;;;;;;501655;237;28784;-70
2022/07/07 08:51:44;;;;;;;3.50;3.20;;;16.90;99.90;;;;;;501640;237;28683;-70
2022/07/07 08:53:46;;;;;;;3.90;2.67;;;17.10;99.90;;;;;;501667;237;28727;-73
2022/07/07 08:55:46;;;;;;;3.10;2.87;;;17.10;99.90;;;;;;501566;237;28713;-70
2022/07/07 08:57:47;;;;;;;3.40;2.70;;;17.20;99.90;;;;;;501661;237;28691;-70
2022/07/07 08:59:49;;;;;;;2.93;2.73;;;17.30;99.90;;;;;;501677;237;28667;-71
2022/07/07 09:01:50;;;;;;;3.20;3.00;;;17.40;99.90;;;;;;501642;237;28711;-70
2022/07/07 09:03:51;;;;;;;3.67;3.37;;;17.50;99.90;;;;;;501696;237;28716;-72
2022/07/07 09:05:52;;;;;;;3.53;3.23;;;17.50;99.90;;;;;;501684;237;28817;-70
2022/07/07 09:07:54;;;;;;;3.00;2.70;;;17.60;99.90;;;;;;501632;237;29250;-70
2022/07/07 09:09:55;;;;;;;2.90;2.70;;;17.80;99.90;;;;;;501700;237;29162;-70
2022/07/07 09:11:56;;;;;;;3.30;2.47;;;17.90;99.90;;;;;;501719;237;29173;-70
2022/07/07 09:13:58;;;;;;;3.13;2.83;;;17.90;99.90;;;;;;501670;237;29240;-73
2022/07/07 09:16:01;;;;;;;4.80;3.10;;;17.70;99.90;;;;;;501694;237;28696;-70
2022/07/07 09:18:00;;;;;;;3.43;3.10;;;17.70;99.90;;;;;;501538;237;28708;-70
2022/07/07 09:20:03;;;;;;;3.20;2.90;;;17.90;99.90;;;;;;501714;237;28769;-70
2022/07/07 09:22:02;;;;;;;3.53;2.70;;;18.00;99.90;;;;;;501321;237;28719;-70
2022/07/07 09:24:07;;;;;;;3.20;2.90;;;18.00;99.90;;;;;;501637;237;28806;-74
2022/07/07 09:26:05;;;;;;;3.97;3.37;;;18.10;99.90;;;;;;501539;237;28708;-71
2022/07/07 09:28:06;;;;;;;3.62;2.67;;;18.30;99.90;;;;;;500759;237;47367;-70
2022/07/07 09:30:07;;;;;;;3.10;2.80;;;18.40;99.90;;;;;;501675;237;27339;-70
2022/07/07 09:32:09;;;;;;;3.10;2.70;;;18.60;99.90;;;;;;501720;237;29207;-70
2022/07/07 09:34:10;;;;;;;4.50;2.73;;;18.70;99.90;;;;;;501731;237;29188;-73
2022/07/07 09:38:31;;;;;;;2.80;2.60;;;19.00;99.90;;;;;;501710;237;28697;-70
2022/07/07 09:40:32;;;;;;;2.70;2.50;;;19.10;99.90;;;;;;501685;237;28719;-73
2022/07/07 09:42:33;;;;;;;3.33;3.00;;;19.10;99.90;;;;;;501735;237;29214;-71
2022/07/07 09:44:34;;;;;;;4.60;2.63;;;19.10;99.90;;;;;;501710;237;29299;-73
2022/07/07 09:46:36;;;;;;;4.70;3.03;;;18.80;99.90;;;;;;501372;237;29416;-70
2022/07/07 09:48:37;;;;;;;2.80;2.60;;;19.10;99.90;;;;;;501471;237;28665;-72
2022/07/07 09:50:38;;;;;;;3.53;2.77;;;19.20;99.90;;;;;;501632;237;28719;-75
2022/07/07 09:52:39;;;;;;;2.93;2.73;;;19.30;99.90;;;;;;501612;237;28773;-71
2022/07/07 09:54:41;;;;;;;3.03;2.77;;;19.30;99.90;;;;;;501659;237;28709;-71
2022/07/07 09:56:42;;;;;;;2.90;2.60;;;19.20;99.90;;;;;;501588;237;28811;-71
2022/07/07 09:58:43;;;;;;;4.97;3.10;;;19.10;99.90;;;;;;501633;237;28735;-70
2022/07/07 10:00:44;;;;;;;3.33;2.87;;;19.10;99.90;;;;;;501610;237;29145;-73
2022/07/07 10:02:46;;;;;;;3.10;2.90;;;19.30;99.90;;;;;;501610;237;28665;-70
2022/07/07 10:04:47;;;;;;;2.93;2.50;;;19.20;99.90;;;;;;501643;237;28772;-71
2022/07/07 10:06:48;;;;;;;2.67;2.30;;;19.20;99.90;;;;;;501640;237;29233;-70
2022/07/07 10:08:49;;;;;;;2.87;2.63;;;19.20;99.90;;;;;;501611;237;29197;-70
2022/07/07 10:10:51;;;;;;;3.07;2.87;;;19.10;99.90;;;;;;501637;237;29304;-73
2022/07/07 10:12:53;;;;;;;4.83;2.77;;;19.00;99.90;;;;;;501621;237;28715;-71
2022/07/07 10:14:53;;;;;;;3.03;2.83;;;18.80;99.90;;;;;;501507;237;28715;-72
2022/07/07 10:16:54;;;;;;;3.10;2.90;;;18.60;99.90;;;;;;501614;237;28761;-70
2022/07/07 10:18:56;;;;;;;3.80;3.33;;;18.50;99.90;;;;;;501382;237;28742;-70
2022/07/07 10:20:57;;;;;;;3.27;2.77;;;18.40;99.90;;;;;;501605;237;28720;-73
2022/07/07 10:22:58;;;;;;;2.90;2.67;;;18.30;99.90;;;;;;501627;237;28656;-70
2022/07/07 10:24:59;;;;;;;4.27;2.90;;;18.30;99.90;;;;;;501604;237;28796;-71
2022/07/07 10:27:01;;;;;;;3.93;2.87;;;18.20;99.90;;;;;;501636;237;28720;-70
2022/07/07 10:29:02;;;;;;;3.90;2.90;;;18.30;99.90;;;;;;501645;237;29190;-69
2022/07/07 10:31:03;;;;;;;3.27;3.00;;;18.20;99.90;;;;;;501568;237;29254;-71
2022/07/07 10:33:04;;;;;;;4.40;3.23;;;18.20;99.90;;;;;;501649;237;29128;-70
2022/07/07 10:35:06;;;;;;;3.10;2.80;;;18.40;99.90;;;;;;501626;237;29173;-73
2022/07/07 10:37:07;;;;;;;3.10;2.90;;;18.40;99.90;;;;;;501587;237;28820;-73